createdAt,value
2022-10-01T00:02:08.764Z,2.67
2022-10-01T00:04:37.950Z,2.60
2022-10-01T00:07:10.295Z,3.10
2022-10-01T00:09:38.516Z,2.63
2022-10-01T00:12:06.551Z,3.30
2022-10-01T00:14:34.355Z,2.90
2022-10-01T00:17:03.491Z,2.30
2022-10-01T00:19:31.415Z,2.37
2022-10-01T00:21:59.245Z,2.30
2022-10-01T00:24:27.268Z,2.60
2022-10-01T00:26:55.087Z,2.60
2022-10-01T00:29:22.934Z,2.10
2022-10-01T00:31:50.921Z,2.57
2022-10-01T00:34:20.203Z,2.23
2022-10-01T00:36:48.067Z,2.40
2022-10-01T00:39:15.905Z,2.13
2022-10-01T00:41:43.893Z,2.40
2022-10-01T00:44:34.067Z,1.87
2022-10-01T00:47:14.686Z,2.00
2022-10-01T00:49:44.580Z,2.00
2022-10-01T00:52:17.048Z,2.07
2022-10-01T00:54:49.441Z,2.10
2022-10-01T00:57:19.643Z,1.90
2022-10-01T00:59:48.238Z,1.87
2022-10-01T01:02:16.089Z,1.90
2022-10-01T01:04:45.312Z,2.00
2022-10-01T01:07:13.916Z,2.27
2022-10-01T01:09:44.304Z,1.70
2022-10-01T01:12:24.753Z,1.90
2022-10-01T01:15:04.805Z,1.90
2022-10-01T01:17:39.917Z,2.33
2022-10-01T01:20:28.739Z,1.80
2022-10-01T01:23:06.977Z,2.00
2022-10-01T01:25:41.692Z,2.10
2022-10-01T01:28:20.912Z,1.80
2022-10-01T01:30:50.934Z,2.10
2022-10-01T01:33:21.397Z,1.70
2022-10-01T01:35:53.171Z,1.93
2022-10-01T01:38:27.914Z,2.17
2022-10-01T01:40:59.506Z,1.90
2022-10-01T01:43:33.123Z,1.80
2022-10-01T01:46:02.218Z,1.80
2022-10-01T01:48:31.840Z,1.53
2022-10-01T01:51:09.251Z,2.23
2022-10-01T01:53:37.128Z,1.73
2022-10-01T01:56:06.434Z,1.90
2022-10-01T01:58:36.886Z,1.63
2022-10-01T02:01:05.337Z,1.73
2022-10-01T02:03:36.051Z,1.60
2022-10-01T02:06:14.843Z,1.80
2022-10-01T02:08:49.663Z,1.53
2022-10-01T02:11:29.348Z,1.77
2022-10-01T02:14:09.042Z,1.77
2022-10-01T02:16:49.083Z,1.87
2022-10-01T02:19:24.711Z,1.93
2022-10-01T02:21:59.728Z,1.77
2022-10-01T02:24:35.963Z,1.57
2022-10-01T02:27:09.370Z,1.70
2022-10-01T02:29:40.418Z,1.73
2022-10-01T02:32:09.452Z,1.53
2022-10-01T02:34:38.985Z,2.10
2022-10-01T02:37:08.850Z,1.90
2022-10-01T02:39:40.880Z,1.90
2022-10-01T02:42:11.010Z,2.10
2022-10-01T02:44:44.996Z,1.87
2022-10-01T02:47:19.489Z,2.00
2022-10-01T02:49:48.191Z,1.90
2022-10-01T02:52:23.519Z,1.80
2022-10-01T02:54:56.091Z,1.90
2022-10-01T02:57:24.299Z,2.03
2022-10-01T02:59:56.426Z,2.40
2022-10-01T03:02:27.486Z,2.13
2022-10-01T03:04:55.599Z,1.70
2022-10-01T03:07:23.562Z,2.10
2022-10-01T03:09:51.916Z,1.90
2022-10-01T03:12:20.285Z,1.90
2022-10-01T03:14:48.220Z,1.83
2022-10-01T03:17:17.640Z,2.00
2022-10-01T03:19:45.463Z,1.83
2022-10-01T03:22:15.380Z,1.90
2022-10-01T03:24:43.188Z,1.70
2022-10-01T03:27:11.238Z,2.00
2022-10-01T03:29:39.007Z,1.70
2022-10-01T03:32:06.796Z,1.43
2022-10-01T03:34:35.971Z,1.90
2022-10-01T03:37:03.803Z,1.80
2022-10-01T03:39:31.833Z,1.40
2022-10-01T03:41:59.648Z,1.47
2022-10-01T03:44:28.350Z,1.70
2022-10-01T03:46:56.426Z,1.60
2022-10-01T03:49:24.617Z,1.70
2022-10-01T03:51:54.098Z,1.47
2022-10-01T03:54:22.510Z,1.67
2022-10-01T03:56:50.608Z,1.40
2022-10-01T03:59:19.298Z,1.50
2022-10-01T04:01:47.220Z,1.53
2022-10-01T04:04:15.558Z,1.40
2022-10-01T04:06:43.367Z,1.43
2022-10-01T04:09:12.519Z,1.20
2022-10-01T04:11:40.304Z,1.60
2022-10-01T04:14:08.998Z,1.57
2022-10-01T04:16:37.025Z,1.60
2022-10-01T04:19:05.541Z,1.53
2022-10-01T04:21:33.580Z,1.73
2022-10-01T04:24:03.047Z,1.40
2022-10-01T04:26:32.266Z,1.60
2022-10-01T04:29:00.099Z,1.40
2022-10-01T04:31:28.104Z,1.60
2022-10-01T04:33:57.682Z,1.37
2022-10-01T04:36:26.559Z,1.57
2022-10-01T04:38:59.377Z,1.27
2022-10-01T04:41:30.369Z,1.57
2022-10-01T04:44:00.542Z,1.40
2022-10-01T04:46:29.355Z,1.57
2022-10-01T04:48:57.229Z,1.40
2022-10-01T04:51:25.424Z,1.47
2022-10-01T04:53:53.274Z,1.30
2022-10-01T04:56:21.119Z,1.40
2022-10-01T04:58:49.126Z,1.43
2022-10-01T05:01:18.314Z,1.37
2022-10-01T05:03:47.365Z,1.43
2022-10-01T05:06:15.304Z,1.13
2022-10-01T05:08:43.122Z,1.33
2022-10-01T05:11:10.953Z,1.30
2022-10-01T05:13:38.780Z,1.47
2022-10-01T05:16:06.893Z,1.27
2022-10-01T05:18:36.195Z,1.33
2022-10-01T05:21:06.599Z,1.30
2022-10-01T05:23:34.547Z,1.40
2022-10-01T05:26:04.180Z,1.43
2022-10-01T05:28:32.283Z,1.27
2022-10-01T05:31:00.946Z,1.70
2022-10-01T05:33:28.913Z,1.20
2022-10-01T05:35:58.100Z,1.17
2022-10-01T05:38:26.075Z,1.47
2022-10-01T05:40:53.871Z,1.50
2022-10-01T05:43:21.690Z,1.40
2022-10-01T05:45:51.385Z,1.33
2022-10-01T05:48:19.382Z,1.40
2022-10-01T05:50:47.220Z,1.50
2022-10-01T05:53:16.407Z,1.47
2022-10-01T05:55:44.277Z,1.70
2022-10-01T05:58:13.909Z,1.60
2022-10-01T06:00:43.179Z,1.83
2022-10-01T06:03:12.745Z,1.67
2022-10-01T06:05:40.795Z,1.63
2022-10-01T06:08:10.597Z,1.87
2022-10-01T06:10:40.287Z,1.90
2022-10-01T06:13:08.739Z,1.90
2022-10-01T06:15:38.465Z,2.03
2022-10-01T06:18:07.761Z,1.70
2022-10-01T06:20:36.275Z,1.80
2022-10-01T06:23:05.780Z,1.70
2022-10-01T06:25:35.074Z,2.20
2022-10-01T06:28:05.854Z,1.80
2022-10-01T06:30:36.799Z,1.93
2022-10-01T06:33:06.368Z,2.20
2022-10-01T06:35:36.512Z,2.20
2022-10-01T06:38:04.700Z,2.27
2022-10-01T06:40:32.691Z,2.13
2022-10-01T06:43:00.523Z,1.90
2022-10-01T06:45:31.153Z,1.87
2022-10-01T06:48:02.562Z,2.13
2022-10-01T06:50:31.705Z,2.40
2022-10-01T06:53:02.026Z,2.23
2022-10-01T06:55:33.112Z,2.17
2022-10-01T06:58:02.472Z,2.03
2022-10-01T07:00:33.296Z,2.30
2022-10-01T07:03:01.533Z,2.07
2022-10-01T07:05:30.554Z,2.23
2022-10-01T07:07:58.391Z,2.20
2022-10-01T07:10:26.198Z,2.47
2022-10-01T07:12:53.999Z,2.10
2022-10-01T07:15:23.862Z,2.43
2022-10-01T07:17:53.748Z,2.50
2022-10-01T07:20:22.286Z,2.40
2022-10-01T07:22:56.890Z,2.20
2022-10-01T07:25:25.103Z,1.70
2022-10-01T07:27:56.015Z,2.20
2022-10-01T07:30:24.784Z,2.30
2022-10-01T07:32:54.301Z,2.30
2022-10-01T07:35:22.695Z,2.03
2022-10-01T07:37:51.448Z,2.40
2022-10-01T07:40:19.699Z,2.50
2022-10-01T07:42:54.472Z,1.83
2022-10-01T07:45:22.883Z,1.87
2022-10-01T07:47:56.225Z,2.20
2022-10-01T07:50:24.326Z,1.80
2022-10-01T07:52:53.698Z,2.10
2022-10-01T07:55:22.782Z,1.97
2022-10-01T07:57:54.220Z,1.70
2022-10-01T08:00:23.317Z,1.80
2022-10-01T08:02:53.460Z,1.67
2022-10-01T08:05:24.366Z,1.90
2022-10-01T08:07:52.612Z,1.60
2022-10-01T08:10:23.170Z,1.40
2022-10-01T08:12:51.053Z,1.40
2022-10-01T08:15:20.295Z,1.40
2022-10-01T08:17:48.128Z,1.30
2022-10-01T08:20:16.848Z,1.23
2022-10-01T08:22:46.029Z,1.50
2022-10-01T08:25:14.163Z,1.10
2022-10-01T08:27:41.945Z,1.87
2022-10-01T08:30:10.587Z,1.13
2022-10-01T08:32:38.531Z,1.17
2022-10-01T08:35:07.328Z,1.30
2022-10-01T08:37:35.244Z,1.00
2022-10-01T08:40:04.772Z,1.20
2022-10-01T08:42:54.928Z,1.00
2022-10-01T08:45:27.447Z,0.97
2022-10-01T08:48:06.674Z,1.00
2022-10-01T08:50:44.294Z,0.80
2022-10-01T08:53:18.074Z,1.10
2022-10-01T08:55:48.547Z,0.97
2022-10-01T08:58:27.929Z,1.20
2022-10-01T09:00:56.008Z,1.00
2022-10-01T09:03:24.175Z,1.27
2022-10-01T09:06:10.397Z,1.13
2022-10-01T09:08:55.630Z,1.10
2022-10-01T09:11:38.120Z,1.10
2022-10-01T09:14:28.066Z,0.90
2022-10-01T09:17:06.117Z,1.00
2022-10-01T09:19:54.131Z,1.00
2022-10-01T09:22:32.899Z,1.13
2022-10-01T09:25:10.701Z,1.53
2022-10-01T09:27:40.405Z,1.30
2022-10-01T09:30:13.268Z,1.20
2022-10-01T09:32:45.616Z,1.27
2022-10-01T09:35:23.179Z,1.20
2022-10-01T09:37:57.189Z,2.17
2022-10-01T09:40:35.403Z,1.20
2022-10-01T09:43:08.010Z,1.10
2022-10-01T09:45:36.454Z,1.30
2022-10-01T09:48:12.766Z,1.40
2022-10-01T09:50:44.186Z,1.73
2022-10-01T09:53:17.537Z,1.47
2022-10-01T09:55:48.701Z,1.20
2022-10-01T09:58:21.375Z,1.10
2022-10-01T10:00:51.500Z,1.20
2022-10-01T10:03:27.493Z,1.20
2022-10-01T10:05:55.781Z,1.00
2022-10-01T10:08:29.771Z,1.20
2022-10-01T10:11:00.581Z,1.10
2022-10-01T10:13:34.965Z,1.03
2022-10-01T10:16:10.946Z,1.30
2022-10-01T10:18:40.794Z,1.60
2022-10-01T10:21:16.199Z,1.60
2022-10-01T10:23:51.931Z,1.10
2022-10-01T10:26:22.659Z,1.60
2022-10-01T10:28:51.820Z,1.60
2022-10-01T10:31:22.310Z,1.33
2022-10-01T10:33:53.624Z,1.50
2022-10-01T10:36:23.791Z,2.13
2022-10-01T10:38:53.672Z,1.73
2022-10-01T10:41:26.364Z,1.90
2022-10-01T10:44:00.491Z,1.67
2022-10-01T10:46:31.948Z,1.80
2022-10-01T10:49:06.256Z,1.30
2022-10-01T10:51:48.630Z,1.23
2022-10-01T10:54:25.691Z,1.73
2022-10-01T10:56:56.041Z,1.93
2022-10-01T10:59:25.477Z,1.67
2022-10-01T11:01:54.029Z,1.53
2022-10-01T11:04:30.348Z,1.00
2022-10-01T11:07:01.140Z,1.57
2022-10-01T11:09:33.503Z,1.70
2022-10-01T11:12:10.173Z,1.40
2022-10-01T11:15:00.539Z,1.10
2022-10-01T11:17:51.477Z,1.20
2022-10-01T11:20:33.907Z,1.17
2022-10-01T11:23:21.388Z,1.17
2022-10-01T11:26:01.066Z,1.20
2022-10-01T11:28:40.168Z,1.00
2022-10-01T11:31:18.349Z,1.83
2022-10-01T11:34:10.272Z,1.13
2022-10-01T11:36:42.984Z,1.37
2022-10-01T11:39:14.573Z,1.00
2022-10-01T11:41:46.582Z,1.10
2022-10-01T11:44:19.143Z,1.30
2022-10-01T11:46:56.959Z,1.03
2022-10-01T11:49:51.398Z,1.30
2022-10-01T11:52:27.821Z,1.30
2022-10-01T11:55:19.472Z,1.10
2022-10-01T11:58:09.553Z,1.10
2022-10-01T12:00:40.203Z,1.30
2022-10-01T12:03:17.712Z,0.90
2022-10-01T12:05:46.550Z,1.27
2022-10-01T12:08:22.113Z,1.50
2022-10-01T12:10:58.763Z,1.30
2022-10-01T12:13:32.720Z,1.20
2022-10-01T12:16:09.182Z,1.40
2022-10-01T12:18:50.038Z,1.10
2022-10-01T12:21:23.956Z,1.20
2022-10-01T12:24:00.479Z,1.30
2022-10-01T12:26:39.774Z,1.10
2022-10-01T12:29:15.784Z,0.97
2022-10-01T12:31:49.023Z,1.20
2022-10-01T12:34:23.965Z,0.90
2022-10-01T12:37:07.416Z,0.83
2022-10-01T12:39:54.744Z,0.80
2022-10-01T12:42:48.219Z,0.90
2022-10-01T12:45:26.275Z,1.00
2022-10-01T12:48:01.355Z,1.10
2022-10-01T12:50:40.921Z,1.10
2022-10-01T12:53:24.671Z,0.97
2022-10-01T12:56:02.178Z,1.00
2022-10-01T12:58:56.149Z,0.90
2022-10-01T13:01:34.319Z,1.00
2022-10-01T13:04:27.244Z,1.03
2022-10-01T13:07:13.615Z,0.90
2022-10-01T13:09:50.578Z,0.87
2022-10-01T13:12:28.976Z,0.70
2022-10-01T13:14:57.620Z,0.80
2022-10-01T13:17:34.793Z,0.97
2022-10-01T13:20:08.969Z,0.80
2022-10-01T13:22:46.986Z,0.70
2022-10-01T13:25:30.557Z,0.90
2022-10-01T13:28:04.628Z,0.97
2022-10-01T13:30:46.257Z,0.70
2022-10-01T13:33:24.713Z,1.23
2022-10-01T13:35:58.197Z,0.80
2022-10-01T13:38:39.825Z,1.03
2022-10-01T13:41:17.900Z,0.97
2022-10-01T13:43:58.190Z,0.90
2022-10-01T13:46:31.046Z,0.80
2022-10-01T13:49:05.712Z,1.10
2022-10-01T13:51:37.751Z,0.80
2022-10-01T13:54:18.597Z,0.90
2022-10-01T13:56:46.706Z,0.70
2022-10-01T13:59:32.836Z,0.90
2022-10-01T14:02:01.152Z,1.23
2022-10-01T14:04:37.039Z,1.20
2022-10-01T14:07:15.204Z,1.30
2022-10-01T14:09:46.853Z,1.10
2022-10-01T14:12:36.116Z,0.90
2022-10-01T14:15:33.398Z,1.00
2022-10-01T14:18:05.298Z,1.17
2022-10-01T14:20:46.312Z,1.10
2022-10-01T14:23:19.678Z,1.10
2022-10-01T14:25:58.562Z,1.20
2022-10-01T14:28:41.829Z,1.20
2022-10-01T14:31:19.928Z,1.40
2022-10-01T14:34:08.199Z,0.90
2022-10-01T14:36:37.677Z,1.10
2022-10-01T14:39:12.951Z,1.00
2022-10-01T14:41:42.120Z,1.00
2022-10-01T14:44:31.986Z,1.10
2022-10-01T14:47:00.936Z,1.10
2022-10-01T14:49:30.284Z,0.90
2022-10-01T14:52:02.595Z,1.20
2022-10-01T14:54:32.524Z,1.20
2022-10-01T14:57:04.788Z,1.30
2022-10-01T14:59:37.424Z,0.87
2022-10-01T15:02:18.270Z,2.10
2022-10-01T15:04:47.713Z,1.03
2022-10-01T15:07:17.203Z,0.83
2022-10-01T15:09:45.387Z,0.80
2022-10-01T15:12:16.070Z,1.00
2022-10-01T15:14:45.857Z,0.90
2022-10-01T15:17:20.541Z,0.87
2022-10-01T15:19:52.773Z,0.93
2022-10-01T15:22:25.071Z,1.00
2022-10-01T15:24:56.928Z,1.23
2022-10-01T15:27:26.652Z,1.00
2022-10-01T15:29:58.632Z,1.10
2022-10-01T15:32:28.219Z,0.90
2022-10-01T15:34:58.810Z,0.97
2022-10-01T15:37:30.912Z,2.07
2022-10-01T15:40:00.523Z,0.90
2022-10-01T15:42:32.832Z,0.90
2022-10-01T15:45:25.162Z,0.80
2022-10-01T15:47:56.804Z,0.87
2022-10-01T15:50:25.815Z,1.10
2022-10-01T15:53:02.012Z,1.17
2022-10-01T15:55:35.866Z,1.20
2022-10-01T15:58:11.547Z,0.97
2022-10-01T16:00:46.178Z,0.80
2022-10-01T16:03:23.285Z,1.00
2022-10-01T16:05:54.782Z,0.90
2022-10-01T16:08:25.089Z,0.80
2022-10-01T16:11:16.800Z,0.80
2022-10-01T16:13:48.735Z,0.87
2022-10-01T16:16:28.350Z,0.83
2022-10-01T16:19:00.359Z,0.70
2022-10-01T16:21:28.347Z,0.90
2022-10-01T16:23:57.020Z,0.70
2022-10-01T16:26:38.181Z,0.80
2022-10-01T16:29:23.973Z,0.80
2022-10-01T16:31:52.185Z,0.73
2022-10-01T16:34:21.475Z,0.90
2022-10-01T16:36:50.195Z,0.80
2022-10-01T16:39:18.050Z,0.80
2022-10-01T16:42:06.376Z,1.03
2022-10-01T16:44:40.171Z,0.80
2022-10-01T16:47:08.190Z,0.80
2022-10-01T16:49:35.996Z,0.97
2022-10-01T16:52:03.812Z,1.00
2022-10-01T16:54:31.613Z,0.80
2022-10-01T16:56:59.588Z,0.80
2022-10-01T16:59:27.393Z,0.80
2022-10-01T17:01:57.429Z,0.87
2022-10-01T17:04:29.223Z,0.70
2022-10-01T17:06:59.367Z,0.73
2022-10-01T17:09:27.256Z,0.80
2022-10-01T17:11:55.511Z,0.77
2022-10-01T17:14:23.426Z,0.90
2022-10-01T17:16:53.349Z,0.90
2022-10-01T17:19:22.898Z,0.70
2022-10-01T17:21:50.700Z,0.80
2022-10-01T17:24:18.526Z,0.70
2022-10-01T17:26:46.388Z,0.70
2022-10-01T17:29:14.502Z,0.80
2022-10-01T17:31:44.774Z,0.80
2022-10-01T17:34:13.241Z,0.87
2022-10-01T17:36:42.412Z,0.80
2022-10-01T17:39:10.288Z,0.80
2022-10-01T17:41:38.103Z,0.77
2022-10-01T17:44:05.944Z,0.90
2022-10-01T17:46:34.035Z,0.90
2022-10-01T17:49:02.071Z,0.90
2022-10-01T17:51:29.967Z,0.83
2022-10-01T17:53:59.903Z,0.90
2022-10-01T17:56:28.075Z,1.20
2022-10-01T17:58:55.916Z,1.77
2022-10-01T18:01:23.692Z,1.17
2022-10-01T18:03:54.023Z,1.00
2022-10-01T18:06:21.807Z,1.20
2022-10-01T18:08:56.511Z,1.00
2022-10-01T18:11:26.869Z,1.20
2022-10-01T18:13:54.671Z,1.27
2022-10-01T18:16:22.913Z,1.17
2022-10-01T18:21:43.436Z,1.00
2022-10-01T18:24:11.318Z,0.90
2022-10-01T18:26:40.445Z,1.07
2022-10-01T18:29:08.490Z,1.10
2022-10-01T18:31:38.054Z,1.00
2022-10-01T18:34:16.322Z,0.90
2022-10-01T18:36:52.904Z,0.70
2022-10-01T18:39:28.999Z,0.80
2022-10-01T18:41:58.728Z,0.90
2022-10-01T18:44:27.018Z,0.90
2022-10-01T18:47:09.940Z,1.00
2022-10-01T18:50:06.436Z,0.80
2022-10-01T18:52:46.683Z,0.77
2022-10-01T18:55:32.583Z,1.13
2022-10-01T18:58:20.619Z,1.00
2022-10-01T19:00:57.309Z,1.00
2022-10-01T19:03:44.715Z,0.83
2022-10-01T19:06:32.885Z,0.90
2022-10-01T19:09:17.917Z,0.80
2022-10-01T19:11:55.266Z,0.90
2022-10-01T19:14:51.817Z,1.00
2022-10-01T19:17:32.600Z,0.90
2022-10-01T19:20:15.075Z,0.90
2022-10-01T19:23:00.811Z,1.20
2022-10-01T19:25:36.371Z,0.90
2022-10-01T19:28:16.590Z,0.93
2022-10-01T19:30:57.970Z,0.90
2022-10-01T19:33:26.025Z,1.00
2022-10-01T19:35:58.469Z,0.80
2022-10-01T19:38:29.896Z,1.00
2022-10-01T19:41:02.316Z,1.10
2022-10-01T19:43:34.544Z,1.00
2022-10-01T19:46:10.414Z,0.90
2022-10-01T19:48:47.038Z,1.07
2022-10-01T19:51:19.461Z,0.90
2022-10-01T19:53:51.032Z,1.10
2022-10-01T19:56:25.540Z,0.93
2022-10-01T19:58:53.702Z,1.07
2022-10-01T20:01:28.460Z,1.17
2022-10-01T20:04:01.935Z,1.00
2022-10-01T20:06:33.607Z,1.37
2022-10-01T20:09:08.176Z,1.20
2022-10-01T20:11:39.752Z,1.10
2022-10-01T20:14:40.354Z,1.10
2022-10-01T20:17:17.119Z,1.07
2022-10-01T20:19:53.148Z,1.13
2022-10-01T20:22:30.382Z,1.37
2022-10-01T20:25:08.573Z,1.77
2022-10-01T20:27:49.446Z,1.30
2022-10-01T20:30:20.500Z,1.10
2022-10-01T20:32:57.258Z,1.20
2022-10-01T20:35:31.097Z,1.10
2022-10-01T20:38:07.865Z,1.40
2022-10-01T20:40:40.940Z,1.40
2022-10-01T20:43:13.765Z,1.40
2022-10-01T20:45:41.984Z,1.57
2022-10-01T20:48:19.248Z,1.20
2022-10-01T20:50:50.695Z,1.47
2022-10-01T20:53:24.852Z,1.20
2022-10-01T20:55:57.454Z,1.33
2022-10-01T20:58:29.869Z,1.20
2022-10-01T21:01:00.947Z,1.17
2022-10-01T21:03:35.976Z,1.37
2022-10-01T21:06:08.526Z,1.30
2022-10-01T21:08:48.839Z,1.40
2022-10-01T21:11:23.736Z,1.10
2022-10-01T21:13:58.595Z,1.00
2022-10-01T21:16:51.510Z,1.40
2022-10-01T21:19:33.405Z,1.20
2022-10-01T21:22:15.817Z,1.43
2022-10-01T21:24:57.506Z,1.13
2022-10-01T21:27:50.239Z,1.77
2022-10-01T21:30:20.141Z,0.90
2022-10-01T21:33:06.984Z,1.27
2022-10-01T21:35:50.496Z,1.20
2022-10-01T21:38:28.543Z,1.43
2022-10-01T21:41:14.463Z,1.33
2022-10-01T21:43:56.487Z,1.23
2022-10-01T21:46:32.559Z,1.13
2022-10-01T21:49:09.601Z,1.30
2022-10-01T21:51:53.131Z,1.60
2022-10-01T21:54:50.095Z,3.83
2022-10-01T21:57:45.824Z,1.67
2022-10-01T22:00:18.942Z,1.33
2022-10-01T22:03:00.985Z,1.20
2022-10-01T22:05:37.857Z,1.10
2022-10-01T22:08:19.148Z,1.17
2022-10-01T22:10:49.461Z,1.00
2022-10-01T22:13:20.826Z,1.53
2022-10-01T22:15:53.008Z,1.10
2022-10-01T22:18:29.017Z,1.20
2022-10-01T22:21:00.812Z,1.37
2022-10-01T22:23:33.628Z,1.50
2022-10-01T22:26:08.833Z,1.17
2022-10-01T22:28:39.742Z,1.30
2022-10-01T22:31:15.219Z,1.30
2022-10-01T22:33:48.190Z,1.37
2022-10-01T22:36:22.395Z,1.40
2022-10-01T22:38:54.864Z,1.40
2022-10-01T22:41:28.844Z,1.37
2022-10-01T22:43:56.778Z,1.50
2022-10-01T22:46:58.449Z,1.30
2022-10-01T22:49:41.105Z,1.50
2022-10-01T22:52:21.572Z,1.63
2022-10-01T22:55:06.177Z,1.30
2022-10-01T22:57:53.484Z,1.40
2022-10-01T23:00:21.751Z,1.50
2022-10-01T23:03:01.363Z,1.67
2022-10-01T23:05:42.615Z,1.43
2022-10-01T23:08:19.145Z,1.60
2022-10-01T23:11:00.043Z,1.40
2022-10-01T23:13:38.996Z,1.70
2022-10-01T23:16:16.992Z,1.80
2022-10-01T23:18:59.911Z,1.37
2022-10-01T23:21:38.505Z,1.60
2022-10-01T23:24:23.801Z,1.97
2022-10-01T23:27:03.522Z,1.53
2022-10-01T23:29:54.021Z,1.77
2022-10-01T23:32:38.410Z,1.60
2022-10-01T23:35:14.347Z,1.60
2022-10-01T23:37:55.004Z,1.50
2022-10-01T23:40:26.538Z,1.70
2022-10-01T23:43:01.179Z,1.50
2022-10-01T23:45:34.318Z,1.80
2022-10-01T23:48:08.942Z,1.53
2022-10-01T23:50:42.390Z,1.60
2022-10-01T23:53:15.856Z,1.50
2022-10-01T23:56:06.186Z,1.80
2022-10-01T23:58:43.514Z,1.63
